Time;durP1;ratioP1;P1;durP2;ratioP2;P2;SDS_P1;SDS_P2;PMS_P1;PMS_P2;Temp;Humidity;BMP_temperature;BMP_pressure;BME280_temperature;BME280_humidity;BME280_pressure;Samples;Min_cycle;Max_cycle;Signal;HPM_P1;HPM_P2
2021/01/31 00:02:20;;;;;;;;;;;;;;;7.59;47.81;99866.75;6279757;22;19923;-76
2021/01/31 00:04:49;;;;;;;;;;;;;;;7.59;47.34;99869.38;6284309;22;19923;-77
2021/01/31 00:07:16;;;;;;;;;;;;;;;7.58;47.42;99871.16;6254907;22;19923;-76
2021/01/31 00:09:43;;;;;;;;;;;;;;;7.57;47.69;99871.22;6283863;22;19919;-77
2021/01/31 00:12:10;;;;;;;;;;;;;;;7.57;47.51;99877.31;6283179;22;20340;-77
2021/01/31 00:14:37;;;;;;;;;;;;;;;7.56;47.58;99872.97;6251708;22;19919;-76
2021/01/31 00:17:05;;;;;;;;;;;;;;;7.56;47.89;99878.22;6252674;22;19934;-76
2021/01/31 00:19:37;;;;;;;;;;;;;;;7.54;47.43;99872.16;6257430;22;19930;-76
2021/01/31 00:22:04;;;;;;;;;;;;;;;7.53;47.47;99875.69;6283481;22;19923;-76
2021/01/31 00:24:31;;;;;;;;;;;;;;;7.51;47.61;99880.13;6282878;22;19923;-77
2021/01/31 00:26:58;;;;;;;;;;;;;;;7.55;47.95;99875.66;6281190;22;19927;-76
2021/01/31 00:29:26;;;;;;;;;;;;;;;7.52;47.86;99873.97;6251624;22;19923;-77
2021/01/31 00:31:53;;;;;;;;;;;;;;;7.48;47.72;99873.22;6250870;22;19925;-77
2021/01/31 00:34:20;;;;;;;;;;;;;;;7.47;48.04;99871.47;6282956;22;19923;-75
2021/01/31 00:36:48;;;;;;;;;;;;;;;7.47;47.98;99874.13;6256413;22;20245;-77
2021/01/31 00:39:16;;;;;;;;;;;;;;;7.45;47.86;99872.44;6255132;22;19949;-76
2021/01/31 00:41:43;;;;;;;;;;;;;;;7.44;47.83;99874.19;6280335;22;19927;-77
2021/01/31 00:44:10;;;;;;;;;;;;;;;7.44;47.95;99875.97;6251857;22;19923;-76
2021/01/31 00:46:38;;;;;;;;;;;;;;;7.41;47.87;99878.69;6256555;22;19930;-72
2021/01/31 00:49:06;;;;;;;;;;;;;;;7.37;48.42;99875.28;6255966;22;19973;-73
2021/01/31 00:51:33;;;;;;;;;;;;;;;7.37;48.20;99874.38;6255512;22;19945;-73
2021/01/31 00:54:00;;;;;;;;;;;;;;;7.34;48.50;99872.75;6255116;22;19950;-74
2021/01/31 00:56:28;;;;;;;;;;;;;;;7.35;48.14;99869.19;6252017;22;19927;-74
2021/01/31 00:58:55;;;;;;;;;;;;;;;7.33;48.35;99863.13;6252300;22;19919;-73
2021/01/31 01:01:22;;;;;;;;;;;;;;;7.33;48.21;99868.38;6283513;22;19987;-73
2021/01/31 01:03:50;;;;;;;;;;;;;;;7.36;48.35;99867.44;6256665;22;19923;-73
2021/01/31 01:06:26;;;;;;;;;;;;;;;7.36;48.52;99856.91;6255211;22;19930;-72
2021/01/31 01:08:54;;;;;;;;;;;;;;;7.39;48.22;99862.91;6256435;22;19923;-74
2021/01/31 01:11:20;;;;;;;;;;;;;;;7.43;48.32;99858.44;6278723;22;19929;-73
2021/01/31 01:13:48;;;;;;;;;;;;;;;7.47;47.96;99860.06;6279178;22;19946;-73
2021/01/31 01:16:15;;;;;;;;;;;;;;;7.48;48.00;99857.41;6255004;22;19923;-73
2021/01/31 01:18:43;;;;;;;;;;;;;;;7.51;47.88;99856.44;6255092;22;19926;-73
2021/01/31 01:21:13;;;;;;;;;;;;;;;7.53;48.04;99841.47;6282342;22;19929;-73
2021/01/31 01:23:41;;;;;;;;;;;;;;;7.57;47.67;99848.38;6283221;22;19969;-74
2021/01/31 01:26:07;;;;;;;;;;;;;;;7.62;47.64;99840.34;6279723;22;19923;-74
2021/01/31 01:28:34;;;;;;;;;;;;;;;7.66;47.58;99847.25;6251839;22;19946;-73
2021/01/31 01:31:02;;;;;;;;;;;;;;;7.68;47.83;99842.78;6280063;22;19923;-73
2021/01/31 01:33:29;;;;;;;;;;;;;;;7.68;47.62;99837.53;6283391;22;19927;-73
2021/01/31 01:35:56;;;;;;;;;;;;;;;7.68;47.77;99837.53;6281844;22;20463;-73
2021/01/31 01:38:23;;;;;;;;;;;;;;;7.71;47.74;99833.94;6255658;22;19967;-73
2021/01/31 01:40:49;;;;;;;;;;;;;;;7.68;47.64;99831.41;6277637;22;19930;-72
2021/01/31 01:43:17;;;;;;;;;;;;;;;7.69;47.74;99823.44;6278404;22;19923;-72
2021/01/31 01:45:45;;;;;;;;;;;;;;;7.67;47.68;99825.28;6283418;22;19919;-72
2021/01/31 01:48:16;;;;;;;;;;;;;;;7.67;47.88;99822.66;6283280;22;19943;-73
2021/01/31 01:50:46;;;;;;;;;;;;;;;7.69;47.79;99809.44;6282321;22;19971;-73
2021/01/31 01:53:16;;;;;;;;;;;;;;;7.68;47.71;99807.72;6278025;22;19962;-73
2021/01/31 01:55:49;;;;;;;;;;;;;;;7.65;47.77;99814.78;6278995;22;19942;-73
2021/01/31 01:58:20;;;;;;;;;;;;;;;7.65;48.03;99814.78;6280491;22;19919;-72
2021/01/31 02:00:48;;;;;;;;;;;;;;;7.63;47.89;99813.97;6281135;22;19951;-73
2021/01/31 02:03:19;;;;;;;;;;;;;;;7.63;47.69;99803.44;6279676;22;19919;-73
2021/01/31 02:05:50;;;;;;;;;;;;;;;7.64;48.03;99810.44;6281457;22;19923;-72
2021/01/31 02:08:17;;;;;;;;;;;;;;;7.65;48.25;99811.28;6248125;22;20378;-73
2021/01/31 02:10:45;;;;;;;;;;;;;;;7.64;47.97;99810.44;6247394;22;19930;-73
2021/01/31 02:13:12;;;;;;;;;;;;;;;7.63;47.85;99805.22;6278723;22;19927;-73
2021/01/31 02:15:39;;;;;;;;;;;;;;;7.62;47.91;99806.13;6280661;22;19927;-73
2021/01/31 02:18:18;;;;;;;;;;;;;;;7.59;48.12;99806.22;6279928;22;19923;-73
2021/01/31 02:21:04;;;;;;;;;;;;;;;7.58;48.04;99800.09;6280665;22;19947;-73
2021/01/31 02:23:50;;;;;;;;;;;;;;;7.57;47.94;99792.25;6247533;22;19923;-73
2021/01/31 02:26:18;;;;;;;;;;;;;;;7.54;48.08;99793.19;6250526;22;20563;-75
2021/01/31 02:28:50;;;;;;;;;;;;;;;7.52;48.05;99797.63;6257266;22;19923;-72
2021/01/31 02:31:32;;;;;;;;;;;;;;;7.54;48.06;99794.94;6284551;22;19930;-73
2021/01/31 02:34:02;;;;;;;;;;;;;;;7.52;48.06;99791.53;6257700;22;19927;-73
2021/01/31 02:36:36;;;;;;;;;;;;;;;7.52;48.34;99791.53;6282076;22;19923;-74
2021/01/31 02:39:09;;;;;;;;;;;;;;;7.48;48.12;99793.38;6279854;22;19981;-74
2021/01/31 02:41:38;;;;;;;;;;;;;;;7.47;48.15;99792.53;6284237;22;19950;-73
2021/01/31 02:44:06;;;;;;;;;;;;;;;7.45;48.34;99788.22;6285237;22;19919;-73
2021/01/31 02:46:35;;;;;;;;;;;;;;;7.45;48.08;99782.97;6284772;22;19923;-73
2021/01/31 02:49:05;;;;;;;;;;;;;;;7.43;48.49;99779.50;6283479;22;19923;-73
2021/01/31 02:51:35;;;;;;;;;;;;;;;7.41;48.12;99782.19;6253211;22;19930;-73
2021/01/31 02:54:05;;;;;;;;;;;;;;;7.40;48.22;99782.22;6253369;22;19923;-73
2021/01/31 02:56:35;;;;;;;;;;;;;;;7.37;48.63;99780.56;6283007;22;19923;-73
2021/01/31 02:59:05;;;;;;;;;;;;;;;7.36;48.05;99777.97;6257008;22;20002;-72
2021/01/31 03:01:35;;;;;;;;;;;;;;;7.37;48.59;99775.28;6283970;22;19930;-72
2021/01/31 03:04:04;;;;;;;;;;;;;;;7.38;48.40;99773.50;6284749;22;20006;-73
2021/01/31 03:06:35;;;;;;;;;;;;;;;7.38;48.52;99769.13;6280521;22;19923;-73
2021/01/31 03:09:06;;;;;;;;;;;;;;;7.42;48.65;99775.13;6253684;22;19926;-72
2021/01/31 03:12:00;;;;;;;;;;;;;;;7.45;48.18;99767.16;6282852;22;19923;-73
2021/01/31 03:14:29;;;;;;;;;;;;;;;7.45;48.27;99778.53;6256865;22;19950;-73
2021/01/31 03:16:59;;;;;;;;;;;;;;;7.52;48.25;99781.00;6283714;22;19919;-73
2021/01/31 03:19:28;;;;;;;;;;;;;;;7.54;48.55;99781.78;6282813;22;19926;-73
2021/01/31 03:21:58;;;;;;;;;;;;;;;7.61;48.09;99776.31;6280210;22;19926;-73
2021/01/31 03:24:29;;;;;;;;;;;;;;;7.61;48.15;99776.31;6255630;22;19988;-73
2021/01/31 03:26:58;;;;;;;;;;;;;;;7.65;47.92;99762.13;6284181;22;20404;-73
2021/01/31 03:29:25;;;;;;;;;;;;;;;7.70;47.87;99762.00;6284776;22;19950;-73
2021/01/31 03:31:55;;;;;;;;;;;;;;;7.72;47.75;99756.69;6284577;22;19919;-73
2021/01/31 03:34:28;;;;;;;;;;;;;;;7.72;48.01;99756.69;6278246;22;19949;-73
2021/01/31 03:37:02;;;;;;;;;;;;;;;7.72;48.13;99761.94;6254897;22;19919;-73
2021/01/31 03:39:30;;;;;;;;;;;;;;;7.73;48.55;99766.31;6283862;22;19927;-73
2021/01/31 03:41:57;;;;;;;;;;;;;;;7.74;48.15;99763.63;6283016;22;19939;-73
2021/01/31 03:44:24;;;;;;;;;;;;;;;7.74;48.14;99753.09;6283554;22;19941;-72
2021/01/31 03:46:57;;;;;;;;;;;;;;;7.75;47.84;99753.97;6279219;22;19919;-74
2021/01/31 03:49:26;;;;;;;;;;;;;;;7.76;48.55;99753.03;6280524;22;19974;-73
2021/01/31 03:51:54;;;;;;;;;;;;;;;7.74;48.05;99746.97;6283223;22;19925;-73
2021/01/31 03:54:22;;;;;;;;;;;;;;;7.72;48.05;99754.94;6284236;22;19919;-73
2021/01/31 03:56:51;;;;;;;;;;;;;;;7.72;48.12;99748.78;6255807;22;19945;-73
2021/01/31 03:59:20;;;;;;;;;;;;;;;7.72;48.35;99740.88;6256100;22;19923;-73
2021/01/31 04:01:49;;;;;;;;;;;;;;;7.73;48.47;99742.63;6280309;22;19919;-73
2021/01/31 04:04:18;;;;;;;;;;;;;;;7.70;48.27;99738.31;6251550;22;19923;-73
2021/01/31 04:06:48;;;;;;;;;;;;;;;7.68;48.60;99747.16;6282974;22;19923;-73
2021/01/31 04:09:16;;;;;;;;;;;;;;;7.67;48.64;99730.53;6256204;22;20568;-74
2021/01/31 04:11:45;;;;;;;;;;;;;;;7.67;48.38;99734.91;6256899;22;20443;-73
2021/01/31 04:14:17;;;;;;;;;;;;;;;7.67;48.29;99730.53;6283006;22;19993;-73
2021/01/31 04:16:46;;;;;;;;;;;;;;;7.65;48.27;99734.97;6250986;22;19923;-73
2021/01/31 04:19:13;;;;;;;;;;;;;;;7.65;48.33;99730.53;6279789;22;19919;-73
2021/01/31 04:21:41;;;;;;;;;;;;;;;7.64;48.75;99733.22;6283441;22;19926;-73
2021/01/31 04:24:09;;;;;;;;;;;;;;;7.60;48.57;99737.75;6282508;22;19926;-73
2021/01/31 04:26:37;;;;;;;;;;;;;;;7.63;48.53;99742.06;6282712;22;19938;-73
2021/01/31 04:29:05;;;;;;;;;;;;;;;7.59;48.60;99737.78;6281505;22;20010;-73
2021/01/31 04:31:32;;;;;;;;;;;;;;;7.58;48.50;99736.94;6251158;22;19923;-73
2021/01/31 04:33:59;;;;;;;;;;;;;;;7.56;48.61;99735.25;6254647;22;19924;-73
2021/01/31 04:36:27;;;;;;;;;;;;;;;7.57;48.93;99732.56;6256091;22;20220;-72
2021/01/31 04:38:53;;;;;;;;;;;;;;;7.56;48.81;99729.97;6256237;22;19923;-72
2021/01/31 04:41:20;;;;;;;;;;;;;;;7.55;48.76;99717.72;6283021;22;19923;-73
2021/01/31 04:43:49;;;;;;;;;;;;;;;7.56;48.97;99729.97;6280227;22;19919;-73
2021/01/31 04:46:18;;;;;;;;;;;;;;;7.53;48.79;99722.19;6280118;22;19935;-74
2021/01/31 04:48:49;;;;;;;;;;;;;;;7.52;49.23;99717.84;6283248;22;19919;-74
2021/01/31 04:51:25;;;;;;;;;;;;;;;7.50;48.97;99717.88;6282741;22;19923;-74
2021/01/31 04:54:08;;;;;;;;;;;;;;;7.52;48.88;99715.19;6283762;22;19926;-73
2021/01/31 04:56:51;;;;;;;;;;;;;;;7.47;49.10;99713.59;6255788;22;19949;-72
2021/01/31 04:59:29;;;;;;;;;;;;;;;7.50;49.18;99706.47;6250832;22;19971;-73
2021/01/31 05:02:02;;;;;;;;;;;;;;;7.50;49.18;99702.09;6281410;22;19942;-73
2021/01/31 05:04:31;;;;;;;;;;;;;;;7.50;49.06;99701.22;6282634;22;19923;-73
2021/01/31 05:07:02;;;;;;;;;;;;;;;7.53;49.00;99703.78;6283301;22;19991;-74
2021/01/31 05:09:29;;;;;;;;;;;;;;;7.55;49.53;99701.94;6255329;22;20446;-74
2021/01/31 05:11:59;;;;;;;;;;;;;;;7.59;49.20;99700.94;6278795;22;19926;-74
2021/01/31 05:14:35;;;;;;;;;;;;;;;7.63;49.14;99702.56;6279108;22;19923;-73
2021/01/31 05:17:03;;;;;;;;;;;;;;;7.66;48.79;99702.47;6282820;22;20356;-73
2021/01/31 05:19:32;;;;;;;;;;;;;;;7.69;49.00;99704.13;6283956;22;19927;-73
2021/01/31 05:21:59;;;;;;;;;;;;;;;7.72;49.17;99696.13;6283129;22;19923;-73
2021/01/31 05:24:27;;;;;;;;;;;;;;;7.75;49.41;99698.69;6255884;22;19926;-73
2021/01/31 05:26:55;;;;;;;;;;;;;;;7.80;48.84;99691.47;6279964;22;19974;-73
2021/01/31 05:29:24;;;;;;;;;;;;;;;7.81;48.92;99698.47;6280410;22;19926;-73
2021/01/31 05:31:52;;;;;;;;;;;;;;;7.81;48.93;99698.47;6281869;22;20398;-73
2021/01/31 05:34:31;;;;;;;;;;;;;;;7.86;49.27;99699.19;6256882;22;19923;-72
2021/01/31 05:37:02;;;;;;;;;;;;;;;7.88;48.65;99692.09;6282204;22;19930;-73
2021/01/31 05:39:35;;;;;;;;;;;;;;;7.87;48.66;99697.44;6279953;22;19927;-73
2021/01/31 05:42:05;;;;;;;;;;;;;;;7.87;48.91;99687.75;6278403;22;20249;-73
2021/01/31 05:44:32;;;;;;;;;;;;;;;7.87;49.39;99695.63;6254274;22;19923;-72
2021/01/31 05:47:01;;;;;;;;;;;;;;;7.86;48.94;99691.28;6256106;22;19928;-73
2021/01/31 05:49:37;;;;;;;;;;;;;;;7.88;48.84;99683.31;6282633;22;19923;-73
2021/01/31 05:52:05;;;;;;;;;;;;;;;7.88;49.01;99685.94;6283182;22;19995;-72
2021/01/31 05:54:33;;;;;;;;;;;;;;;7.87;49.09;99679.84;6279062;22;19953;-72
2021/01/31 05:57:00;;;;;;;;;;;;;;;7.88;48.95;99683.31;6274899;22;19928;-73
2021/01/31 05:59:38;;;;;;;;;;;;;;;7.87;49.01;99681.63;6281012;22;19923;-72
2021/01/31 06:02:06;;;;;;;;;;;;;;;7.86;49.22;99682.53;6280561;22;19919;-73
2021/01/31 06:04:33;;;;;;;;;;;;;;;7.84;48.79;99685.22;6281756;22;20596;-73
2021/01/31 06:07:05;;;;;;;;;;;;;;;7.84;49.09;99684.34;6254864;22;19946;-73
2021/01/31 06:09:38;;;;;;;;;;;;;;;7.85;49.00;99680.81;6278425;22;19923;-72
2021/01/31 06:12:07;;;;;;;;;;;;;;;7.82;49.04;99684.41;6250989;22;19967;-73
2021/01/31 06:14:35;;;;;;;;;;;;;;;7.81;49.42;99682.66;6254549;22;19954;-73
2021/01/31 06:17:04;;;;;;;;;;;;;;;7.79;49.18;99682.72;6255221;22;19958;-73
2021/01/31 06:19:33;;;;;;;;;;;;;;;7.78;49.54;99688.88;6283292;22;19946;-73
2021/01/31 06:22:01;;;;;;;;;;;;;;;7.76;49.17;99685.47;6281702;22;19924;-73
2021/01/31 06:24:39;;;;;;;;;;;;;;;7.76;49.56;99679.31;6276902;22;19929;-73
2021/01/31 06:27:06;;;;;;;;;;;;;;;7.76;49.36;99677.56;6278784;22;19919;-73
2021/01/31 06:29:37;;;;;;;;;;;;;;;7.74;49.79;99673.25;6284795;22;19971;-73
2021/01/31 06:32:07;;;;;;;;;;;;;;;7.73;49.37;99676.81;6284398;22;19923;-72
2021/01/31 06:34:34;;;;;;;;;;;;;;;7.71;49.50;99671.59;6284540;22;19930;-74
2021/01/31 06:37:16;;;;;;;;;;;;;;;7.71;49.34;99671.59;6256731;22;19981;-73
2021/01/31 06:39:50;;;;;;;;;;;;;;;7.73;49.28;99676.81;6281014;22;19930;-73
2021/01/31 06:42:23;;;;;;;;;;;;;;;7.68;49.83;99673.47;6283783;22;19919;-73
2021/01/31 06:44:58;;;;;;;;;;;;;;;7.68;49.95;99684.84;6285731;22;19927;-72
2021/01/31 06:47:37;;;;;;;;;;;;;;;7.68;49.78;99678.72;6258022;22;19950;-73
2021/01/31 06:50:09;;;;;;;;;;;;;;;7.63;49.74;99674.47;6283059;22;19919;-73
2021/01/31 06:52:46;;;;;;;;;;;;;;;7.63;49.74;99676.25;6280106;22;19919;-73
2021/01/31 06:55:26;;;;;;;;;;;;;;;7.61;49.74;99676.28;6279219;22;19923;-73
2021/01/31 06:58:09;;;;;;;;;;;;;;;7.60;49.57;99685.09;6284331;22;20442;-73
2021/01/31 07:01:00;;;;;;;;;;;;;;;7.62;49.77;99680.63;6286006;22;19923;-73
2021/01/31 07:03:37;;;;;;;;;;;;;;;7.64;49.94;99686.72;6284991;22;19929;-73
2021/01/31 07:06:22;;;;;;;;;;;;;;;7.63;49.67;99676.25;6280957;22;19923;-73
2021/01/31 07:09:04;;;;;;;;;;;;;;;7.68;50.00;99676.94;6252194;22;19926;-73
2021/01/31 07:11:37;;;;;;;;;;;;;;;7.71;49.52;99676.84;6280046;22;20444;-72
2021/01/31 07:14:27;;;;;;;;;;;;;;;7.74;49.95;99674.13;6284371;22;19919;-73
2021/01/31 07:16:59;;;;;;;;;;;;;;;7.78;49.50;99680.16;6285046;22;19919;-72
2021/01/31 07:19:29;;;;;;;;;;;;;;;7.84;49.46;99681.72;6257187;22;19939;-73
2021/01/31 07:22:00;;;;;;;;;;;;;;;7.86;49.90;99678.13;6280748;22;20267;-73
2021/01/31 07:24:32;;;;;;;;;;;;;;;7.94;49.33;99676.06;6254060;22;19941;-72
2021/01/31 07:27:02;;;;;;;;;;;;;;;7.95;49.50;99671.69;6284167;22;19920;-72
2021/01/31 07:29:32;;;;;;;;;;;;;;;7.98;49.15;99682.09;6257927;22;19923;-72
2021/01/31 07:32:01;;;;;;;;;;;;;;;8.03;49.08;99684.59;6283952;22;19923;-72
2021/01/31 07:34:33;;;;;;;;;;;;;;;8.05;49.34;99688.03;6280123;22;19923;-71
2021/01/31 07:37:06;;;;;;;;;;;;;;;8.09;49.58;99689.63;6251243;22;19942;-71
2021/01/31 07:39:38;;;;;;;;;;;;;;;8.08;49.39;99677.41;6285133;22;19930;-72
2021/01/31 07:42:07;;;;;;;;;;;;;;;8.10;49.31;99686.09;6282700;22;19919;-72
2021/01/31 07:44:36;;;;;;;;;;;;;;;8.11;49.07;99688.69;6282680;22;19930;-71
2021/01/31 07:47:04;;;;;;;;;;;;;;;8.15;49.27;99686.81;6282665;22;19919;-73
2021/01/31 07:49:46;;;;;;;;;;;;;;;8.14;49.31;99677.16;6279829;22;19930;-72
2021/01/31 07:52:16;;;;;;;;;;;;;;;8.13;48.97;99678.13;6251687;22;19923;-77
2021/01/31 07:55:07;;;;;;;;;;;;;;;8.13;49.11;99688.66;6258230;22;19919;-74
2021/01/31 07:57:37;;;;;;;;;;;;;;;8.12;49.19;99685.13;6285133;22;19927;-74
2021/01/31 08:00:19;;;;;;;;;;;;;;;8.11;49.32;99688.69;6257317;22;19939;-77
2021/01/31 08:02:49;;;;;;;;;;;;;;;8.13;49.61;99696.56;6257911;22;19950;-75
2021/01/31 08:05:37;;;;;;;;;;;;;;;8.18;49.06;99702.53;6280433;22;19929;-74
2021/01/31 08:08:11;;;;;;;;;;;;;;;8.17;49.24;99694.66;6282499;22;19920;-75
2021/01/31 08:10:43;;;;;;;;;;;;;;;8.14;48.94;99698.25;6257689;22;19988;-74
2021/01/31 08:13:31;;;;;;;;;;;;;;;8.11;49.17;99699.22;6283107;22;19925;-72
2021/01/31 08:15:58;;;;;;;;;;;;;;;8.09;49.66;99698.41;6257732;22;19919;-73
2021/01/31 08:18:25;;;;;;;;;;;;;;;8.07;49.22;99699.38;6280683;22;19925;-75
2021/01/31 08:20:53;;;;;;;;;;;;;;;8.08;48.98;99701.97;6252954;22;19923;-74
2021/01/31 08:23:38;;;;;;;;;;;;;;;8.10;49.59;99702.78;6283063;22;19923;-73
2021/01/31 08:26:08;;;;;;;;;;;;;;;8.20;48.91;99697.19;6283437;22;20359;-74
2021/01/31 08:28:37;;;;;;;;;;;;;;;8.30;48.45;99695.97;6282602;22;19946;-74
2021/01/31 08:31:12;;;;;;;;;;;;;;;8.35;48.52;99691.38;6257166;22;20247;-74
2021/01/31 08:33:40;;;;;;;;;;;;;;;8.43;48.88;99693.75;6279711;22;19923;-74
2021/01/31 08:36:09;;;;;;;;;;;;;;;8.46;48.67;99694.53;6280825;22;19927;-75
2021/01/31 08:38:45;;;;;;;;;;;;;;;8.54;48.93;99693.41;6246740;22;20411;-75
2021/01/31 08:41:30;;;;;;;;;;;;;;;8.74;48.07;99692.69;6277404;22;19924;-75
2021/01/31 08:43:59;;;;;;;;;;;;;;;8.95;47.90;99691.88;6253960;22;19927;-75
2021/01/31 08:46:29;;;;;;;;;;;;;;;9.09;46.91;99686.09;6253844;22;19920;-75
2021/01/31 08:48:56;;;;;;;;;;;;;;;9.21;46.58;99686.53;6278154;22;19975;-74
2021/01/31 08:51:24;;;;;;;;;;;;;;;9.14;46.64;99692.06;6253219;22;19931;-74
2021/01/31 08:54:04;;;;;;;;;;;;;;;9.04;47.69;99695.09;6281437;22;19930;-74
2021/01/31 08:56:33;;;;;;;;;;;;;;;9.04;47.35;99700.38;6255165;22;19923;-73
2021/01/31 08:59:03;;;;;;;;;;;;;;;9.10;47.29;99697.50;6255711;22;19925;-74
2021/01/31 09:01:37;;;;;;;;;;;;;;;9.10;47.53;99701.00;6250892;22;19982;-74
2021/01/31 09:04:06;;;;;;;;;;;;;;;9.08;47.57;99702.81;6280737;22;20006;-74
2021/01/31 09:06:34;;;;;;;;;;;;;;;9.04;47.79;99706.50;6255943;22;19923;-74
2021/01/31 09:09:01;;;;;;;;;;;;;;;9.04;47.28;99708.28;6284778;22;19920;-75
2021/01/31 09:11:28;;;;;;;;;;;;;;;9.02;47.31;99712.75;6283041;22;20446;-74
2021/01/31 09:13:55;;;;;;;;;;;;;;;9.08;47.44;99710.75;6285515;22;19941;-76
2021/01/31 09:16:24;;;;;;;;;;;;;;;9.20;47.60;99711.22;6253439;22;19919;-76
2021/01/31 09:19:02;;;;;;;;;;;;;;;9.25;46.69;99717.16;6280352;22;19927;-75
2021/01/31 09:21:30;;;;;;;;;;;;;;;9.34;46.85;99713.28;6284573;22;19923;-74
2021/01/31 09:24:01;;;;;;;;;;;;;;;9.43;46.71;99710.31;6283190;22;19923;-75
2021/01/31 09:26:28;;;;;;;;;;;;;;;9.43;47.04;99718.25;6255144;22;20316;-75
2021/01/31 09:28:57;;;;;;;;;;;;;;;9.43;46.94;99712.97;6255365;22;19934;-75
2021/01/31 09:31:26;;;;;;;;;;;;;;;9.43;47.19;99708.53;6277080;22;20450;-79
2021/01/31 09:33:57;;;;;;;;;;;;;;;9.47;47.09;99704.00;6256112;22;19919;-76
2021/01/31 09:36:25;;;;;;;;;;;;;;;9.41;46.99;99714.78;6283366;22;19927;-78
2021/01/31 09:38:53;;;;;;;;;;;;;;;9.37;46.99;99721.97;6284955;22;19926;-78
2021/01/31 09:41:22;;;;;;;;;;;;;;;9.34;47.18;99724.72;6284898;22;20025;-74
2021/01/31 09:43:51;;;;;;;;;;;;;;;9.39;47.33;99720.13;6281570;22;19919;-75
2021/01/31 09:46:21;;;;;;;;;;;;;;;9.45;46.89;99719.88;6253948;22;19919;-75
2021/01/31 09:48:49;;;;;;;;;;;;;;;9.52;46.72;99719.66;6257555;22;19919;-74
2021/01/31 09:51:22;;;;;;;;;;;;;;;9.55;46.47;99723.03;6285148;22;19923;-73
2021/01/31 09:53:49;;;;;;;;;;;;;;;9.58;46.85;99719.41;6284599;22;20245;-74
2021/01/31 09:56:31;;;;;;;;;;;;;;;9.56;46.47;99724.75;6257569;22;19939;-74
2021/01/31 09:58:58;;;;;;;;;;;;;;;9.67;47.74;99728.75;6251636;22;19919;-74
2021/01/31 10:01:26;;;;;;;;;;;;;;;9.86;51.06;99732.38;6254122;22;19923;-72
2021/01/31 10:03:57;;;;;;;;;;;;;;;9.90;53.38;99730.44;6280824;22;19920;-71
2021/01/31 10:06:25;;;;;;;;;;;;;;;9.91;52.81;99726.91;6280584;22;19923;-73
2021/01/31 10:08:54;;;;;;;;;;;;;;;9.95;51.81;99718.78;6281610;22;20002;-72
2021/01/31 10:11:28;;;;;;;;;;;;;;;10.07;50.49;99728.00;6280207;22;19923;-78
2021/01/31 10:13:55;;;;;;;;;;;;;;;10.27;48.29;99724.50;6276651;22;19923;-78
2021/01/31 10:16:27;;;;;;;;;;;;;;;10.51;46.28;99727.06;6281730;22;19923;-79
2021/01/31 10:18:54;;;;;;;;;;;;;;;10.76;44.43;99729.47;6281825;22;19946;-76
2021/01/31 10:21:25;;;;;;;;;;;;;;;11.07;42.61;99732.53;6253933;22;19923;-77
2021/01/31 10:24:00;;;;;;;;;;;;;;;11.06;41.66;99730.81;6282203;22;19924;-75
2021/01/31 10:26:29;;;;;;;;;;;;;;;11.12;41.20;99739.34;6276405;22;19946;-74
2021/01/31 10:28:58;;;;;;;;;;;;;;;11.14;40.57;99733.97;6279671;22;19929;-74
2021/01/31 10:31:26;;;;;;;;;;;;;;;11.20;40.31;99739.00;6256118;22;19976;-74
2021/01/31 10:33:54;;;;;;;;;;;;;;;11.26;40.80;99735.19;6282146;22;19934;-74
2021/01/31 10:36:29;;;;;;;;;;;;;;;11.42;40.53;99733.53;6254317;22;20260;-74
2021/01/31 10:38:58;;;;;;;;;;;;;;;11.76;40.18;99723.97;6280751;22;19946;-74
2021/01/31 10:41:24;;;;;;;;;;;;;;;11.83;40.08;99726.34;6278814;22;20487;-74
2021/01/31 10:44:03;;;;;;;;;;;;;;;11.87;40.06;99727.91;6279755;22;19923;-74
2021/01/31 10:46:30;;;;;;;;;;;;;;;11.83;40.43;99728.97;6282623;22;19923;-73
2021/01/31 10:48:57;;;;;;;;;;;;;;;11.72;40.97;99725.06;6282436;22;19923;-73
2021/01/31 10:51:27;;;;;;;;;;;;;;;12.03;40.29;99722.72;6257321;22;20600;-74
2021/01/31 10:53:55;;;;;;;;;;;;;;;11.76;40.91;99726.63;6256474;22;20654;-74
2021/01/31 10:56:22;;;;;;;;;;;;;;;11.85;40.94;99727.13;6252329;22;19923;-74
2021/01/31 10:58:49;;;;;;;;;;;;;;;11.97;40.72;99725.69;6243155;22;19919;-74
2021/01/31 11:01:16;;;;;;;;;;;;;;;11.72;41.30;99721.56;6284072;22;19927;-73
2021/01/31 11:03:43;;;;;;;;;;;;;;;11.56;41.61;99735.53;6258846;22;19957;-74
2021/01/31 11:06:10;;;;;;;;;;;;;;;11.26;42.48;99743.13;6283545;22;19972;-74
2021/01/31 11:08:37;;;;;;;;;;;;;;;11.14;42.88;99736.63;6255343;22;19923;-74
2021/01/31 11:11:06;;;;;;;;;;;;;;;11.01;43.12;99740.75;6253306;22;19934;-74
2021/01/31 11:13:33;;;;;;;;;;;;;;;10.84;43.49;99739.72;6282283;22;19930;-75
2021/01/31 11:16:00;;;;;;;;;;;;;;;10.72;43.64;99740.28;6284296;22;20010;-74
2021/01/31 11:18:27;;;;;;;;;;;;;;;10.69;43.83;99740.38;6284684;22;19929;-75
2021/01/31 11:20:55;;;;;;;;;;;;;;;10.71;43.77;99734.09;6257383;22;19931;-74
2021/01/31 11:23:22;;;;;;;;;;;;;;;10.87;43.74;99738.72;6280602;22;19923;-76
2021/01/31 11:25:49;;;;;;;;;;;;;;;10.82;43.80;99735.41;6242799;22;20403;-76
2021/01/31 11:28:17;;;;;;;;;;;;;;;10.88;43.63;99738.66;6284093;22;19926;-75
2021/01/31 11:30:47;;;;;;;;;;;;;;;11.04;43.37;99735.31;6256990;22;19919;-76
2021/01/31 11:33:14;;;;;;;;;;;;;;;11.51;42.15;99731.41;6257187;22;19942;-74
2021/01/31 11:35:46;;;;;;;;;;;;;;;11.58;42.23;99731.03;6284004;22;20360;-74
2021/01/31 11:38:13;;;;;;;;;;;;;;;11.39;42.89;99731.03;6279628;22;19933;-74
2021/01/31 11:40:40;;;;;;;;;;;;;;;11.67;42.57;99726.22;6280780;22;19927;-74
2021/01/31 11:43:07;;;;;;;;;;;;;;;11.76;42.20;99731.91;6284319;22;20363;-74
2021/01/31 11:45:35;;;;;;;;;;;;;;;11.62;42.58;99739.69;6284415;22;19925;-74
2021/01/31 11:48:02;;;;;;;;;;;;;;;11.99;41.83;99737.94;6256186;22;19977;-75
2021/01/31 11:50:29;;;;;;;;;;;;;;;12.79;40.09;99728.56;6257844;22;20444;-75
2021/01/31 11:53:00;;;;;;;;;;;;;;;12.42;40.90;99729.59;6278570;22;20029;-74
2021/01/31 11:55:27;;;;;;;;;;;;;;;12.27;41.16;99733.91;6253627;22;19968;-75
2021/01/31 11:57:54;;;;;;;;;;;;;;;12.12;41.70;99731.09;6283359;22;19927;-75
2021/01/31 12:00:21;;;;;;;;;;;;;;;11.98;42.16;99728.28;6283122;22;19927;-75
2021/01/31 12:02:49;;;;;;;;;;;;;;;12.23;41.34;99729.69;6272495;22;19930;-75
2021/01/31 12:05:19;;;;;;;;;;;;;;;12.39;41.27;99724.47;6284823;22;19919;-73
2021/01/31 12:07:48;;;;;;;;;;;;;;;13.76;37.99;99717.13;6278397;22;19934;-75
2021/01/31 12:10:16;;;;;;;;;;;;;;;14.31;37.14;99716.66;6254326;22;19923;-75
2021/01/31 12:12:44;;;;;;;;;;;;;;;13.41;39.09;99722.59;6282858;22;19926;-78
2021/01/31 12:15:16;;;;;;;;;;;;;;;12.74;40.54;99719.13;6284505;22;20273;-76
2021/01/31 12:17:43;;;;;;;;;;;;;;;12.75;40.70;99728.78;6257461;22;19927;-77
2021/01/31 12:20:12;;;;;;;;;;;;;;;12.51;41.29;99723.81;6280580;22;20263;-76
2021/01/31 12:22:39;;;;;;;;;;;;;;;12.46;41.49;99725.84;6277672;22;19934;-75
2021/01/31 12:25:13;;;;;;;;;;;;;;;12.41;41.57;99720.81;6254634;22;19923;-74
2021/01/31 12:27:44;;;;;;;;;;;;;;;12.66;40.94;99727.50;6282618;22;19927;-74
2021/01/31 12:30:12;;;;;;;;;;;;;;;13.39;39.44;99726.28;6256307;22;19954;-75
2021/01/31 12:32:39;;;;;;;;;;;;;;;13.18;39.82;99723.84;6257053;22;20293;-75
2021/01/31 12:35:06;;;;;;;;;;;;;;;14.22;37.62;99710.94;6279941;22;19923;-75
2021/01/31 12:37:34;;;;;;;;;;;;;;;13.33;39.67;99716.84;6277629;22;19931;-74
2021/01/31 12:40:03;;;;;;;;;;;;;;;13.26;40.07;99707.47;6282533;22;19920;-73
2021/01/31 12:42:31;;;;;;;;;;;;;;;12.81;41.01;99711.69;6281601;22;19923;-74
2021/01/31 12:44:57;;;;;;;;;;;;;;;14.38;37.70;99704.69;6256129;22;19946;-73
2021/01/31 12:47:24;;;;;;;;;;;;;;;13.44;39.36;99705.66;6254726;22;19923;-73
2021/01/31 12:49:53;;;;;;;;;;;;;;;15.30;36.04;99710.63;6278551;22;19919;-80
2021/01/31 12:52:29;;;;;;;;;;;;;;;14.24;37.87;99706.38;6249191;22;19923;-74
2021/01/31 12:54:57;;;;;;;;;;;;;;;13.37;39.98;99726.38;6282004;22;19923;-74
2021/01/31 12:57:24;;;;;;;;;;;;;;;13.13;40.42;99725.88;6281566;22;19981;-73
2021/01/31 12:59:51;;;;;;;;;;;;;;;15.77;35.22;99715.59;6282493;22;19962;-73
2021/01/31 13:02:18;;;;;;;;;;;;;;;15.66;35.43;99718.09;6282457;22;19925;-73
2021/01/31 13:04:45;;;;;;;;;;;;;;;15.44;35.88;99715.94;6250627;22;20701;-73
2021/01/31 13:07:13;;;;;;;;;;;;;;;14.33;38.46;99720.94;6275363;22;20418;-74
2021/01/31 13:09:40;;;;;;;;;;;;;;;13.93;39.34;99725.91;6255497;22;20010;-73
2021/01/31 13:12:08;;;;;;;;;;;;;;;13.65;40.12;99719.53;6280563;22;19919;-73